Station Historical Data
Daily Summary for March 27, 2017 Units:  English    Metric   Both
« Previous Day
Next Day »
Daily Weekly Monthly Yearly Custom
  High: Low: Average:
Temperature: 53.6 °F 45.2 °F 49.1 °F
Dew Point: 49.5 °F 43.0 °F 45.4 °F
Humidity: 93% 81% 87%
Wind Speed: 10.0mph 0.0mph 4.3mph
Wind Gust: 16.0mph - -
Wind- - SSW
Pressure: 29.97 in 29.88 in -
Precipitation: 0.00 in    
Historical Graphs
 
 
Tabular Data for March 27, 2017
Time Temperature Dew Point Pressure Wind Wind Speed Wind Gust Humidity Rainfall Rate (Hourly)
00:04 48.3 °F 44.6 °F 29.97 in SW 3.0 mph 4.0 mph 87% 0.02 in
00:09 48.5 °F 44.8 °F 29.97 in South 3.0 mph 8.0 mph 87% 0.02 in
00:14 48.5 °F 44.8 °F 29.96 in South 4.0 mph 8.0 mph 87% 0.01 in
00:19 48.5 °F 44.5 °F 29.96 in SSW 5.0 mph 7.0 mph 86% 0.01 in
00:24 48.7 °F 44.7 °F 29.96 in SSW 4.0 mph 8.0 mph 86% 0.01 in
00:29 48.8 °F 44.8 °F 29.96 in South 4.0 mph 8.0 mph 86% 0.00 in
00:34 48.8 °F 44.5 °F 29.96 in South 4.0 mph 8.0 mph 85% 0.00 in
00:39 48.9 °F 44.6 °F 29.96 in South 2.0 mph 11.0 mph 85% 0.00 in
00:44 49.0 °F 44.7 °F 29.96 in SSW 5.0 mph 9.0 mph 85% 0.00 in
00:49 49.0 °F 44.7 °F 29.95 in SSW 7.0 mph 8.0 mph 85% 0.00 in
00:54 49.0 °F 44.4 °F 29.95 in SSE 4.0 mph 7.0 mph 84% 0.00 in
00:59 48.8 °F 44.2 °F 29.95 in South 4.0 mph 7.0 mph 84% 0.00 in
01:04 48.7 °F 44.1 °F 29.94 in South 4.0 mph 8.0 mph 84% 0.00 in
01:09 48.7 °F 44.1 °F 29.94 in South 4.0 mph 9.0 mph 84% 0.00 in
01:14 48.7 °F 44.1 °F 29.94 in South 4.0 mph 9.0 mph 84% 0.00 in
01:19 48.8 °F 44.2 °F 29.94 in SSW 3.0 mph 12.0 mph 84% 0.00 in
01:24 48.9 °F 44.3 °F 29.94 in South 5.0 mph 12.0 mph 84% 0.00 in
01:29 49.0 °F 44.4 °F 29.94 in South 4.0 mph 9.0 mph 84% 0.00 in
01:34 49.0 °F 44.4 °F 29.93 in South 4.0 mph 7.0 mph 84% 0.00 in
01:39 49.0 °F 44.4 °F 29.93 in SSE 3.0 mph 8.0 mph 84% 0.00 in
01:44 48.9 °F 44.3 °F 29.93 in SSE 4.0 mph 7.0 mph 84% 0.00 in
01:49 48.9 °F 44.3 °F 29.93 in South 3.0 mph 7.0 mph 84% 0.00 in
01:54 48.9 °F 44.3 °F 29.93 in South 4.0 mph 7.0 mph 84% 0.00 in
01:59 49.0 °F 44.1 °F 29.93 in South 4.0 mph 8.0 mph 83% 0.00 in
02:04 49.1 °F 44.2 °F 29.93 in South 4.0 mph 8.0 mph 83% 0.00 in
02:09 49.1 °F 44.2 °F 29.93 in SSW 5.0 mph 6.0 mph 83% 0.00 in
02:14 49.1 °F 44.2 °F 29.92 in South 5.0 mph 9.0 mph 83% 0.00 in
02:19 49.1 °F 44.2 °F 29.92 in South 2.0 mph 6.0 mph 83% 0.00 in
02:24 49.0 °F 44.1 °F 29.92 in South 3.0 mph 6.0 mph 83% 0.00 in
02:29 49.0 °F 44.1 °F 29.92 in South 3.0 mph 6.0 mph 83% 0.00 in
02:34 49.0 °F 44.1 °F 29.92 in South 3.0 mph 7.0 mph 83% 0.00 in
02:39 49.1 °F 44.2 °F 29.92 in SSW 2.0 mph 7.0 mph 83% 0.00 in
02:44 49.1 °F 44.2 °F 29.92 in SSW 4.0 mph 5.0 mph 83% 0.00 in
02:49 49.3 °F 44.4 °F 29.92 in South 3.0 mph 9.0 mph 83% 0.00 in
02:54 49.5 °F 44.6 °F 29.92 in SSW 3.0 mph 6.0 mph 83% 0.00 in
02:59 49.6 °F 44.6 °F 29.92 in South 3.0 mph 7.0 mph 83% 0.00 in
03:04 49.6 °F 44.6 °F 29.91 in South 4.0 mph 9.0 mph 83% 0.00 in
03:09 49.6 °F 44.6 °F 29.91 in South 4.0 mph 9.0 mph 83% 0.00 in
03:14 49.6 °F 44.6 °F 29.91 in SSW 5.0 mph 7.0 mph 83% 0.00 in
03:19 49.7 °F 44.7 °F 29.90 in SSW 4.0 mph 8.0 mph 83% 0.00 in
03:24 49.7 °F 44.7 °F 29.90 in South 2.0 mph 6.0 mph 83% 0.00 in
03:29 49.8 °F 44.8 °F 29.90 in South 4.0 mph 7.0 mph 83% 0.00 in
03:34 49.8 °F 44.8 °F 29.90 in South 4.0 mph 7.0 mph 83% 0.00 in
03:39 49.9 °F 45.3 °F 29.90 in South 4.0 mph 7.0 mph 84% 0.00 in
03:44 50.0 °F 45.0 °F 29.90 in South 4.0 mph 7.0 mph 83% 0.00 in
03:49 50.1 °F 45.1 °F 29.89 in South 4.0 mph 7.0 mph 83% 0.00 in
03:54 50.2 °F 45.2 °F 29.89 in South 3.0 mph 7.0 mph 83% 0.00 in
03:59 50.3 °F 45.3 °F 29.89 in SSW 1.0 mph 7.0 mph 83% 0.00 in
04:04 50.2 °F 45.2 °F 29.89 in South 3.0 mph 7.0 mph 83% 0.00 in
04:09 50.2 °F 45.2 °F 29.90 in SSW 3.0 mph 6.0 mph 83% 0.00 in
04:14 50.3 °F 45.3 °F 29.89 in South 3.0 mph 7.0 mph 83% 0.00 in
04:19 50.4 °F 45.1 °F 29.89 in SSW 2.0 mph 6.0 mph 82% 0.01 in
04:24 50.4 °F 45.1 °F 29.89 in SSW 3.0 mph 6.0 mph 82% 0.01 in
04:29 50.6 °F 45.3 °F 29.89 in SSE 4.0 mph 9.0 mph 82% 0.01 in
04:34 50.6 °F 45.3 °F 29.89 in SSW 4.0 mph 9.0 mph 82% 0.01 in
04:39 50.5 °F 45.2 °F 29.89 in South 4.0 mph 8.0 mph 82% 0.01 in
04:44 50.6 °F 45.3 °F 29.89 in South 4.0 mph 14.0 mph 82% 0.01 in
04:49 50.6 °F 45.0 °F 29.89 in South 5.0 mph 14.0 mph 81% 0.01 in
04:54 50.7 °F 45.1 °F 29.89 in South 6.0 mph 12.0 mph 81% 0.01 in
04:59 50.5 °F 44.9 °F 29.89 in SSW 6.0 mph 8.0 mph 81% 0.01 in
05:04 50.3 °F 44.7 °F 29.89 in South 5.0 mph 9.0 mph 81% 0.01 in
05:09 50.2 °F 44.6 °F 29.88 in South 5.0 mph 9.0 mph 81% 0.01 in
05:14 50.2 °F 44.6 °F 29.88 in South 5.0 mph 9.0 mph 81% 0.01 in
05:19 50.2 °F 44.6 °F 29.88 in SSW 5.0 mph 8.0 mph 81% 0.00 in
05:24 50.2 °F 44.6 °F 29.88 in South 6.0 mph 13.0 mph 81% 0.00 in
05:29 50.4 °F 44.8 °F 29.88 in SSW 7.0 mph 8.0 mph 81% 0.00 in
05:34 50.4 °F 44.8 °F 29.89 in South 4.0 mph 8.0 mph 81% 0.00 in
05:39 50.5 °F 44.9 °F 29.88 in South 4.0 mph 8.0 mph 81% 0.00 in
05:44 50.5 °F 44.9 °F 29.89 in South 4.0 mph 8.0 mph 81% 0.00 in
05:49 50.6 °F 45.0 °F 29.89 in South 4.0 mph 10.0 mph 81% 0.00 in
05:54 50.9 °F 45.3 °F 29.89 in South 6.0 mph 9.0 mph 81% 0.00 in
05:59 50.9 °F 45.3 °F 29.89 in SSW 4.0 mph 9.0 mph 81% 0.00 in
06:04 50.9 °F 45.3 °F 29.89 in SSW 5.0 mph 9.0 mph 81% 0.00 in
06:09 50.9 °F 45.3 °F 29.89 in South 5.0 mph 10.0 mph 81% 0.00 in
06:14 50.9 °F 45.3 °F 29.89 in SSW 5.0 mph 10.0 mph 81% 0.00 in
06:19 50.9 °F 45.3 °F 29.89 in SSE 3.0 mph 8.0 mph 81% 0.00 in
06:24 51.0 °F 45.4 °F 29.89 in SW 6.0 mph 10.0 mph 81% 0.00 in
06:29 51.1 °F 45.5 °F 29.89 in SW 5.0 mph 9.0 mph 81% 0.00 in
06:34 51.2 °F 45.6 °F 29.89 in South 4.0 mph 11.0 mph 81% 0.00 in
06:39 51.2 °F 45.6 °F 29.89 in South 5.0 mph 11.0 mph 81% 0.00 in
06:44 51.2 °F 45.6 °F 29.89 in South 5.0 mph 11.0 mph 81% 0.00 in
06:49 51.0 °F 45.4 °F 29.89 in South 5.0 mph 11.0 mph 81% 0.00 in
06:54 51.0 °F 45.4 °F 29.89 in South 5.0 mph 9.0 mph 81% 0.00 in
06:59 51.0 °F 45.4 °F 29.89 in South 4.0 mph 6.0 mph 81% 0.00 in
07:04 51.0 °F 45.4 °F 29.89 in SSW 6.0 mph 9.0 mph 81% 0.00 in
07:09 51.0 °F 45.4 °F 29.89 in SSE 4.0 mph 10.0 mph 81% 0.00 in
07:14 50.9 °F 45.3 °F 29.89 in SSW 7.0 mph 9.0 mph 81% 0.00 in
07:19 50.9 °F 45.3 °F 29.90 in South 7.0 mph 7.0 mph 81% 0.00 in
07:24 50.8 °F 45.5 °F 29.90 in ESE 5.0 mph 7.0 mph 82% 0.00 in
07:29 50.8 °F 45.5 °F 29.90 in SSW 6.0 mph 7.0 mph 82% 0.00 in
07:34 50.8 °F 45.5 °F 29.90 in SSW 4.0 mph 7.0 mph 82% 0.00 in
07:39 50.9 °F 45.6 °F 29.90 in SSW 7.0 mph 9.0 mph 82% 0.00 in
07:44 51.0 °F 45.7 °F 29.90 in SSW 4.0 mph 9.0 mph 82% 0.00 in
07:49 51.2 °F 45.9 °F 29.90 in South 5.0 mph 9.0 mph 82% 0.00 in
07:54 51.5 °F 46.2 °F 29.90 in South 5.0 mph 11.0 mph 82% 0.00 in
07:59 51.7 °F 46.1 °F 29.91 in SSW 5.0 mph 11.0 mph 81% 0.00 in
08:04 51.7 °F 46.1 °F 29.91 in South 6.0 mph 10.0 mph 81% 0.00 in
08:09 51.7 °F 46.1 °F 29.91 in SSW 5.0 mph 10.0 mph 81% 0.00 in
08:14 51.8 °F 46.5 °F 29.91 in SSW 5.0 mph 10.0 mph 82% 0.00 in
08:19 51.9 °F 46.6 °F 29.91 in SSW 5.0 mph 9.0 mph 82% 0.00 in
08:24 52.0 °F 46.7 °F 29.91 in South 5.0 mph 8.0 mph 82% 0.00 in
08:29 52.0 °F 46.7 °F 29.91 in South 3.0 mph 7.0 mph 82% 0.00 in
08:34 52.0 °F 46.7 °F 29.91 in South 3.0 mph 7.0 mph 82% 0.00 in
08:39 52.0 °F 46.7 °F 29.91 in SSE 4.0 mph 9.0 mph 82% 0.00 in
08:44 51.9 °F 46.6 °F 29.91 in South 4.0 mph 9.0 mph 82% 0.00 in
08:49 51.9 °F 46.9 °F 29.91 in SSW 4.0 mph 7.0 mph 83% 0.00 in
08:54 51.9 °F 46.9 °F 29.90 in SSW 3.0 mph 8.0 mph 83% 0.00 in
08:59 51.9 °F 46.9 °F 29.90 in WSW 3.0 mph 7.0 mph 83% 0.00 in
09:04 52.0 °F 47.3 °F 29.90 in South 2.0 mph 7.0 mph 84% 0.00 in
09:09 52.0 °F 47.3 °F 29.90 in SSW 6.0 mph 7.0 mph 84% 0.00 in
09:14 52.1 °F 47.4 °F 29.90 in SSW 4.0 mph 7.0 mph 84% 0.00 in
09:19 52.2 °F 47.5 °F 29.90 in SSW 3.0 mph 7.0 mph 84% 0.00 in
09:24 52.4 °F 47.7 °F 29.89 in SSW 3.0 mph 7.0 mph 84% 0.00 in
09:29 52.7 °F 48.0 °F 29.89 in SSW 3.0 mph 7.0 mph 84% 0.00 in
09:34 52.9 °F 48.2 °F 29.89 in SSW 3.0 mph 6.0 mph 84% 0.00 in
09:39 53.1 °F 48.1 °F 29.89 in SSW 4.0 mph 6.0 mph 83% 0.00 in
09:44 53.3 °F 48.3 °F 29.89 in South 5.0 mph 9.0 mph 83% 0.00 in
09:49 53.4 °F 48.4 °F 29.89 in SSW 4.0 mph 9.0 mph 83% 0.00 in
09:54 53.5 °F 48.5 °F 29.90 in SW 5.0 mph 9.0 mph 83% 0.00 in
09:59 53.6 °F 48.6 °F 29.89 in South 4.0 mph 8.0 mph 83% 0.00 in
10:04 53.5 °F 48.5 °F 29.90 in SSW 4.0 mph 8.0 mph 83% 0.00 in
10:09 53.3 °F 48.6 °F 29.90 in SSW 8.0 mph 11.0 mph 84% 0.00 in
10:14 53.0 °F 48.6 °F 29.90 in South 5.0 mph 11.0 mph 85% 0.00 in
10:19 53.1 °F 48.7 °F 29.90 in SSW 4.0 mph 11.0 mph 85% 0.00 in
10:24 53.0 °F 48.6 °F 29.90 in SSW 4.0 mph 8.0 mph 85% 0.00 in
10:29 53.0 °F 48.6 °F 29.90 in SSW 4.0 mph 9.0 mph 85% 0.00 in
10:34 52.8 °F 48.7 °F 29.91 in SSW 4.0 mph 9.0 mph 86% 0.00 in
10:39 52.8 °F 48.7 °F 29.91 in SSW 3.0 mph 8.0 mph 86% 0.00 in
10:44 52.9 °F 48.8 °F 29.91 in South 3.0 mph 7.0 mph 86% 0.00 in
10:49 52.8 °F 49.0 °F 29.91 in SSW 4.0 mph 13.0 mph 87% 0.00 in
10:54 52.5 °F 49.0 °F 29.91 in WSW 3.0 mph 11.0 mph 88% 0.00 in
10:59 52.4 °F 49.3 °F 29.91 in SSW 3.0 mph 9.0 mph 89% 0.00 in
11:04 52.2 °F 49.1 °F 29.91 in SW 4.0 mph 10.0 mph 89% 0.00 in
11:09 52.3 °F 49.5 °F 29.91 in SSW 8.0 mph 11.0 mph 90% 0.00 in
11:14 52.1 °F 49.3 °F 29.92 in South 7.0 mph 13.0 mph 90% 0.00 in
11:19 52.1 °F 49.3 °F 29.92 in SW 6.0 mph 13.0 mph 90% 0.00 in
11:24 52.0 °F 49.2 °F 29.92 in SW 6.0 mph 13.0 mph 90% 0.00 in
11:29 52.0 °F 49.5 °F 29.92 in SW 6.0 mph 13.0 mph 91% 0.00 in
11:34 51.7 °F 49.2 °F 29.92 in SW 7.0 mph 16.0 mph 91% 0.00 in
11:39 51.3 °F 48.8 °F 29.92 in SW 7.0 mph 16.0 mph 91% 0.00 in
11:44 51.0 °F 48.5 °F 29.92 in WSW 7.0 mph 10.0 mph 91% 0.00 in
11:49 50.5 °F 48.0 °F 29.92 in SW 7.0 mph 14.0 mph 91% 0.00 in
11:54 49.9 °F 47.4 °F 29.92 in SW 7.0 mph 14.0 mph 91% 0.00 in
11:59 49.5 °F 47.0 °F 29.92 in SW 7.0 mph 14.0 mph 91% 0.00 in
12:04 49.1 °F 46.6 °F 29.92 in WSW 7.0 mph 11.0 mph 91% 0.00 in
12:09 49.1 °F 46.9 °F 29.92 in WSW 3.0 mph 11.0 mph 92% 0.00 in
12:14 49.2 °F 47.0 °F 29.92 in SW 6.0 mph 11.0 mph 92% 0.00 in
12:19 48.9 °F 46.7 °F 29.92 in SW 4.0 mph 9.0 mph 92% 0.00 in
12:24 48.4 °F 46.2 °F 29.93 in SW 6.0 mph 13.0 mph 92% 0.00 in
12:29 47.6 °F 45.4 °F 29.93 in SW 6.0 mph 13.0 mph 92% 0.00 in
12:34 47.6 °F 45.4 °F 29.93 in SW 6.0 mph 13.0 mph 92% 0.00 in
12:39 47.5 °F 45.6 °F 29.93 in SW 7.0 mph 11.0 mph 93% 0.00 in
12:44 47.2 °F 45.0 °F 29.92 in SW 6.0 mph 11.0 mph 92% 0.00 in
12:49 46.9 °F 44.7 °F 29.93 in SW 6.0 mph 11.0 mph 92% 0.00 in
12:54 46.6 °F 44.7 °F 29.92 in SW 6.0 mph 11.0 mph 93% 0.00 in
12:59 46.5 °F 44.6 °F 29.93 in SW 6.0 mph 12.0 mph 93% 0.00 in
13:04 46.1 °F 43.9 °F 29.92 in WSW 6.0 mph 14.0 mph 92% 0.00 in
13:09 46.1 °F 43.9 °F 29.93 in SW 6.0 mph 14.0 mph 92% 0.00 in
13:14 45.8 °F 43.9 °F 29.93 in SW 4.0 mph 13.0 mph 93% 0.00 in
13:19 45.2 °F 43.0 °F 29.93 in SW 7.0 mph 12.0 mph 92% 0.00 in
13:24 45.2 °F 43.3 °F 29.93 in SW 7.0 mph 13.0 mph 93% 0.00 in
13:29 45.2 °F 43.3 °F 29.92 in SW 6.0 mph 13.0 mph 93% 0.00 in
13:34 45.3 °F 43.4 °F 29.92 in SW 6.0 mph 13.0 mph 93% 0.00 in
13:39 45.4 °F 43.5 °F 29.93 in WSW 6.0 mph 12.0 mph 93% 0.00 in
13:44 45.3 °F 43.4 °F 29.92 in SSE 4.0 mph 11.0 mph 93% 0.00 in
13:49 45.4 °F 43.5 °F 29.92 in WSW 9.0 mph 10.0 mph 93% 0.00 in
13:54 45.4 °F 43.5 °F 29.92 in West 4.0 mph 12.0 mph 93% 0.00 in
13:59 45.4 °F 43.5 °F 29.92 in SW 6.0 mph 12.0 mph 93% 0.00 in
14:04 45.2 °F 43.0 °F 29.92 in SW 7.0 mph 13.0 mph 92% 0.00 in
14:09 45.2 °F 43.3 °F 29.92 in SW 7.0 mph 13.0 mph 93% 0.00 in
14:14 45.4 °F 43.5 °F 29.92 in WSW 7.0 mph 14.0 mph 93% 0.00 in
14:19 45.5 °F 43.6 °F 29.93 in WSW 7.0 mph 11.0 mph 93% 0.00 in
14:24 45.5 °F 43.3 °F 29.93 in WSW 5.0 mph 13.0 mph 92% 0.00 in
14:29 45.7 °F 43.5 °F 29.93 in SW 6.0 mph 11.0 mph 92% 0.00 in
14:34 45.8 °F 43.6 °F 29.92 in SW 6.0 mph 11.0 mph 92% 0.00 in
14:39 45.8 °F 43.6 °F 29.93 in WSW 6.0 mph 15.0 mph 92% 0.00 in
14:44 45.7 °F 43.5 °F 29.93 in West 3.0 mph 12.0 mph 92% 0.00 in
14:49 45.6 °F 43.4 °F 29.93 in SW 10.0 mph 11.0 mph 92% 0.00 in
14:54 45.5 °F 43.3 °F 29.93 in SW 7.0 mph 12.0 mph 92% 0.00 in
14:59 45.5 °F 43.3 °F 29.92 in SW 5.0 mph 10.0 mph 92% 0.00 in
15:04 45.7 °F 43.5 °F 29.92 in SW 5.0 mph 13.0 mph 92% 0.00 in
15:09 45.8 °F 43.6 °F 29.92 in SW 5.0 mph 13.0 mph 92% 0.00 in
15:14 45.7 °F 43.5 °F 29.92 in SW 5.0 mph 11.0 mph 92% 0.00 in
15:19 45.8 °F 43.6 °F 29.93 in SW 6.0 mph 12.0 mph 92% 0.00 in
15:24 45.9 °F 43.7 °F 29.92 in SW 8.0 mph 10.0 mph 92% 0.00 in
15:29 45.9 °F 43.7 °F 29.92 in WSW 5.0 mph 13.0 mph 92% 0.00 in
15:34 45.9 °F 43.7 °F 29.92 in SW 6.0 mph 13.0 mph 92% 0.00 in
15:39 46.2 °F 44.0 °F 29.92 in WSW 10.0 mph 14.0 mph 92% 0.00 in
15:44 47.0 °F 45.1 °F 29.92 in SSW 4.0 mph 11.0 mph 93% 0.00 in
15:49 47.6 °F 45.4 °F 29.92 in WSW 7.0 mph 11.0 mph 92% 0.00 in
15:54 48.2 °F 45.7 °F 29.92 in SW 6.0 mph 11.0 mph 91% 0.00 in
15:59 49.0 °F 46.2 °F 29.92 in SW 6.0 mph 11.0 mph 90% 0.00 in
16:04 49.6 °F 46.5 °F 29.92 in SW 6.0 mph 12.0 mph 89% 0.00 in
16:09 49.7 °F 46.3 °F 29.92 in SW 6.0 mph 12.0 mph 88% 0.00 in
16:14 49.9 °F 46.5 °F 29.92 in SW 5.0 mph 12.0 mph 88% 0.00 in
16:19 49.6 °F 45.9 °F 29.92 in SW 5.0 mph 11.0 mph 87% 0.00 in
16:24 49.4 °F 45.7 °F 29.91 in SW 5.0 mph 11.0 mph 87% 0.00 in
16:29 49.1 °F 45.4 °F 29.92 in SW 5.0 mph 13.0 mph 87% 0.00 in
16:34 48.9 °F 45.2 °F 29.92 in SSW 6.0 mph 11.0 mph 87% 0.00 in
16:39 48.3 °F 44.6 °F 29.91 in South 4.0 mph 9.0 mph 87% 0.00 in
16:44 48.1 °F 44.4 °F 29.92 in SW 6.0 mph 10.0 mph 87% 0.00 in
16:49 47.9 °F 44.5 °F 29.92 in WSW 8.0 mph 10.0 mph 88% 0.00 in
16:54 48.1 °F 45.0 °F 29.91 in West 5.0 mph 9.0 mph 89% 0.00 in
16:59 48.4 °F 45.3 °F 29.92 in SW 7.0 mph 9.0 mph 89% 0.00 in
17:04 48.7 °F 45.6 °F 29.91 in WSW 5.0 mph 11.0 mph 89% 0.00 in
17:09 48.8 °F 45.7 °F 29.92 in WSW 6.0 mph 13.0 mph 89% 0.00 in
17:14 48.7 °F 45.3 °F 29.91 in WSW 6.0 mph 13.0 mph 88% 0.00 in
17:19 48.6 °F 45.5 °F 29.91 in SW 6.0 mph 13.0 mph 89% 0.00 in
17:24 48.7 °F 45.6 °F 29.91 in SW 6.0 mph 13.0 mph 89% 0.00 in
17:29 48.7 °F 45.6 °F 29.91 in WSW 4.0 mph 13.0 mph 89% 0.00 in
17:34 48.9 °F 45.8 °F 29.91 in WSW 6.0 mph 11.0 mph 89% 0.00 in
17:39 49.0 °F 45.9 °F 29.91 in SW 6.0 mph 11.0 mph 89% 0.00 in
17:44 49.1 °F 46.3 °F 29.91 in SW 6.0 mph 12.0 mph 90% 0.00 in
17:49 49.5 °F 46.7 °F 29.91 in WSW 6.0 mph 11.0 mph 90% 0.00 in
17:54 50.1 °F 47.3 °F 29.91 in WSW 4.0 mph 9.0 mph 90% 0.00 in
17:59 50.3 °F 47.2 °F 29.91 in SW 8.0 mph 10.0 mph 89% 0.00 in
18:04 50.3 °F 47.2 °F 29.91 in WSW 6.0 mph 11.0 mph 89% 0.00 in
18:09 50.4 °F 47.0 °F 29.92 in WSW 6.0 mph 13.0 mph 88% 0.00 in
18:14 50.3 °F 46.9 °F 29.91 in SW 7.0 mph 13.0 mph 88% 0.00 in
18:19 50.4 °F 47.0 °F 29.91 in WSW 6.0 mph 13.0 mph 88% 0.00 in
18:24 50.2 °F 46.8 °F 29.92 in WSW 6.0 mph 14.0 mph 88% 0.00 in
18:29 50.1 °F 46.7 °F 29.91 in WSW 7.0 mph 14.0 mph 88% 0.00 in
18:34 49.9 °F 46.5 °F 29.92 in SW 7.0 mph 14.0 mph 88% 0.00 in
18:39 49.9 °F 46.5 °F 29.92 in SW 7.0 mph 14.0 mph 88% 0.00 in
18:44 49.9 °F 46.5 °F 29.92 in SW 6.0 mph 13.0 mph 88% 0.00 in
18:49 49.9 °F 46.5 °F 29.92 in WSW 4.0 mph 8.0 mph 88% 0.00 in
18:54 49.8 °F 46.4 °F 29.92 in SSW 4.0 mph 7.0 mph 88% 0.00 in
18:59 49.7 °F 46.3 °F 29.92 in SW 8.0 mph 11.0 mph 88% 0.00 in
19:04 49.5 °F 46.1 °F 29.92 in South 9.0 mph 11.0 mph 88% 0.00 in
19:09 49.4 °F 46.0 °F 29.92 in WSW 4.0 mph 10.0 mph 88% 0.00 in
19:14 49.2 °F 46.1 °F 29.92 in SW 8.0 mph 8.0 mph 89% 0.00 in
19:19 49.1 °F 46.0 °F 29.92 in SW 4.0 mph 8.0 mph 89% 0.00 in
19:24 48.9 °F 45.8 °F 29.92 in WSW 3.0 mph 8.0 mph 89% 0.00 in
19:29 48.8 °F 45.7 °F 29.92 in SW 3.0 mph 8.0 mph 89% 0.00 in
19:34 48.8 °F 45.7 °F 29.92 in SW 3.0 mph 7.0 mph 89% 0.00 in
19:39 48.8 °F 46.0 °F 29.91 in SW 3.0 mph 7.0 mph 90% 0.00 in
19:44 48.7 °F 45.9 °F 29.91 in WSW 3.0 mph 7.0 mph 90% 0.00 in
19:49 48.6 °F 45.8 °F 29.92 in SW 4.0 mph 6.0 mph 90% 0.00 in
19:54 48.7 °F 45.9 °F 29.92 in SW 5.0 mph 8.0 mph 90% 0.00 in
19:59 48.7 °F 45.9 °F 29.92 in WSW 3.0 mph 7.0 mph 90% 0.00 in
20:09 48.5 °F 45.7 °F 29.92 in WSW 4.0 mph 6.0 mph 90% 0.00 in
20:14 48.4 °F 45.6 °F 29.92 in WSW 2.0 mph 7.0 mph 90% 0.00 in
20:19 48.3 °F 45.8 °F 29.92 in WSW 1.0 mph 8.0 mph 91% 0.00 in
20:24 48.2 °F 45.4 °F 29.92 in SW 3.0 mph 8.0 mph 90% 0.00 in
20:29 48.1 °F 45.3 °F 29.92 in SW 4.0 mph 7.0 mph 90% 0.00 in
20:34 47.8 °F 45.0 °F 29.92 in SW 4.0 mph 7.0 mph 90% 0.00 in
20:39 47.8 °F 45.3 °F 29.92 in SW 3.0 mph 6.0 mph 91% 0.00 in
20:44 47.6 °F 45.1 °F 29.92 in SW 2.0 mph 6.0 mph 91% 0.00 in
20:49 47.4 °F 44.9 °F 29.93 in SW 4.0 mph 5.0 mph 91% 0.00 in
20:54 47.3 °F 44.8 °F 29.93 in SW 2.0 mph 5.0 mph 91% 0.00 in
20:59 47.1 °F 44.6 °F 29.93 in SW 2.0 mph 5.0 mph 91% 0.00 in
21:04 47.0 °F 44.5 °F 29.93 in SW 2.0 mph 5.0 mph 91% 0.00 in
21:09 46.9 °F 44.4 °F 29.93 in SW 2.0 mph 5.0 mph 91% 0.00 in
21:14 46.9 °F 44.4 °F 29.93 in Calm   2.0 mph 91% 0.00 in
21:19 46.9 °F 44.4 °F 29.93 in Calm     91% 0.00 in
21:24 46.7 °F 44.2 °F 29.93 in Calm     91% 0.00 in
21:29 46.6 °F 44.1 °F 29.93 in South 1.0 mph 3.0 mph 91% 0.00 in
21:34 46.6 °F 44.1 °F 29.93 in Calm   3.0 mph 91% 0.00 in
21:39 46.7 °F 44.5 °F 29.93 in South 1.0 mph 3.0 mph 92% 0.00 in
21:44 46.6 °F 44.1 °F 29.93 in Calm   3.0 mph 91% 0.00 in
21:49 46.3 °F 43.8 °F 29.93 in South 1.0 mph 1.0 mph 91% 0.00 in
21:54 46.2 °F 44.0 °F 29.93 in SSW 1.0 mph 3.0 mph 92% 0.00 in
21:59 46.0 °F 43.8 °F 29.93 in SSW 1.0 mph 3.0 mph 92% 0.00 in
22:04 45.8 °F 43.6 °F 29.93 in SSW 1.0 mph 3.0 mph 92% 0.00 in
22:09 46.0 °F 43.8 °F 29.92 in SSW 1.0 mph 2.0 mph 92% 0.00 in
22:14 46.1 °F 43.9 °F 29.93 in SSW 1.0 mph 3.0 mph 92% 0.00 in
22:19 46.3 °F 44.1 °F 29.92 in SSW 3.0 mph 4.0 mph 92% 0.00 in
22:24 46.9 °F 45.0 °F 29.92 in SSW 2.0 mph 5.0 mph 93% 0.00 in
22:29 47.3 °F 45.1 °F 29.92 in SSW 3.0 mph 5.0 mph 92% 0.00 in
22:34 47.5 °F 45.3 °F 29.92 in South 2.0 mph 4.0 mph 92% 0.00 in
22:39 47.7 °F 45.5 °F 29.91 in South 2.0 mph 4.0 mph 92% 0.00 in
22:44 47.9 °F 45.7 °F 29.91 in SSW 2.0 mph 4.0 mph 92% 0.00 in
22:49 47.9 °F 45.7 °F 29.92 in Calm   4.0 mph 92% 0.00 in
22:54 47.8 °F 45.3 °F 29.92 in Calm   2.0 mph 91% 0.00 in
22:59 47.6 °F 45.1 °F 29.91 in Calm   2.0 mph 91% 0.00 in
23:04 47.4 °F 44.9 °F 29.91 in Calm     91% 0.00 in
23:09 47.2 °F 44.7 °F 29.91 in Calm     91% 0.00 in
23:14 47.0 °F 44.5 °F 29.91 in Calm     91% 0.00 in
23:19 46.8 °F 44.3 °F 29.91 in Calm     91% 0.00 in
23:24 46.6 °F 44.1 °F 29.91 in Calm     91% 0.00 in
23:34 46.1 °F 43.6 °F 29.91 in Calm     91% 0.00 in
23:39 46.0 °F 43.8 °F 29.91 in Calm     92% 0.00 in
23:44 46.0 °F 43.8 °F 29.91 in Calm     92% 0.00 in
23:49 46.1 °F 43.9 °F 29.91 in Calm     92% 0.00 in
23:54 46.2 °F 44.0 °F 29.90 in Calm     92% 0.00 in
23:59 46.4 °F 44.2 °F 29.91 in Calm     92% 0.00 in
Buffalo, New York, USA
Compliments of Weather Underground - 2.5 mb